Time;durP1;ratioP1;P1;durP2;ratioP2;P2;SDS_P1;SDS_P2;PMS_P1;PMS_P2;Temp;Humidity;BMP_temperature;BMP_pressure;BME280_temperature;BME280_humidity;BME280_pressure;Samples;Min_cycle;Max_cycle;Signal;HPM_P1;HPM_P2
2023/07/20 00:00:13;;;;;;;1.00;0.80;;;;;;;;;;5067953;28;20028;-76
2023/07/20 00:02:39;;;;;;;0.85;0.80;;;;;;;;;;5069022;28;20017;-75
2023/07/20 00:05:06;;;;;;;1.02;0.70;;;;;;;;;;5068836;28;20364;-76
2023/07/20 00:07:32;;;;;;;0.95;0.85;;;;;;;;;;5068146;28;20437;-76
2023/07/20 00:09:58;;;;;;;0.70;0.70;;;;;;;;;;5067534;28;20029;-76
2023/07/20 00:12:23;;;;;;;0.77;0.77;;;;;;;;;;5066126;28;20184;-76
2023/07/20 00:14:51;;;;;;;1.58;0.98;;;;;;;;;;5068024;28;20021;-77
2023/07/20 00:17:17;;;;;;;0.80;0.70;;;;;;;;;;5061850;28;20055;-76
2023/07/20 00:19:43;;;;;;;1.20;0.80;;;;;;;;;;5066866;28;20020;-76
2023/07/20 00:22:09;;;;;;;0.60;0.60;;;;;;;;;;5066652;28;20025;-76
2023/07/20 00:24:36;;;;;;;0.82;0.82;;;;;;;;;;5063746;28;20035;-76
2023/07/20 00:27:02;;;;;;;0.68;0.68;;;;;;;;;;5065128;28;20020;-76
2023/07/20 00:29:28;;;;;;;0.88;0.85;;;;;;;;;;5068217;28;20044;-76
2023/07/20 00:31:54;;;;;;;0.68;0.68;;;;;;;;;;5067944;28;20032;-77
2023/07/20 00:34:20;;;;;;;0.70;0.70;;;;;;;;;;5067294;28;20024;-76
2023/07/20 00:36:46;;;;;;;0.82;0.80;;;;;;;;;;5070081;28;20051;-76
2023/07/20 00:39:12;;;;;;;0.70;0.60;;;;;;;;;;5076616;28;20025;-76
2023/07/20 00:41:38;;;;;;;0.70;0.70;;;;;;;;;;5068662;28;20371;-76
2023/07/20 00:44:05;;;;;;;0.90;0.90;;;;;;;;;;5067044;28;20041;-76
2023/07/20 00:46:32;;;;;;;1.10;1.00;;;;;;;;;;5067884;28;20100;-76
2023/07/20 00:48:58;;;;;;;0.80;0.80;;;;;;;;;;5068413;28;20031;-76
2023/07/20 00:51:25;;;;;;;0.93;0.80;;;;;;;;;;5067871;28;20025;-76
2023/07/20 00:53:51;;;;;;;1.02;0.70;;;;;;;;;;5068572;28;20109;-76
2023/07/20 00:56:17;;;;;;;1.58;1.05;;;;;;;;;;5068028;28;20620;-76
2023/07/20 00:58:44;;;;;;;0.70;0.70;;;;;;;;;;5058876;28;20025;-76
2023/07/20 01:01:10;;;;;;;1.13;0.70;;;;;;;;;;5068487;28;20020;-75
2023/07/20 01:03:36;;;;;;;0.65;0.65;;;;;;;;;;5066241;28;20074;-76
2023/07/20 01:06:24;;;;;;;1.00;0.68;;;;;;;;;;5067786;28;20107;-77
2023/07/20 01:09:00;;;;;;;1.10;0.70;;;;;;;;;;5068444;28;20053;-77
2023/07/20 01:11:45;;;;;;;0.68;0.68;;;;;;;;;;5068833;28;20024;-76
2023/07/20 01:14:12;;;;;;;1.00;0.90;;;;;;;;;;5068369;28;20107;-76
2023/07/20 01:16:38;;;;;;;0.88;0.80;;;;;;;;;;5067525;28;20031;-76
2023/07/20 01:19:05;;;;;;;0.65;0.65;;;;;;;;;;5068818;28;20028;-76
2023/07/20 01:21:33;;;;;;;0.73;0.73;;;;;;;;;;5068836;28;20013;-76
2023/07/20 01:24:09;;;;;;;0.75;0.70;;;;;;;;;;5067990;28;20123;-77
2023/07/20 01:26:54;;;;;;;0.60;0.60;;;;;;;;;;5068485;28;20031;-76
2023/07/20 01:29:39;;;;;;;1.02;0.88;;;;;;;;;;5058063;28;20414;-77
2023/07/20 01:32:07;;;;;;;1.10;1.00;;;;;;;;;;5068195;28;20024;-76
2023/07/20 01:34:35;;;;;;;1.02;0.93;;;;;;;;;;5069123;28;20096;-76
2023/07/20 01:37:01;;;;;;;0.70;0.70;;;;;;;;;;5068987;28;20024;-76
2023/07/20 01:39:27;;;;;;;0.77;0.65;;;;;;;;;;5069282;28;20048;-76
2023/07/20 01:41:53;;;;;;;0.85;0.85;;;;;;;;;;5069265;28;20029;-76
2023/07/20 01:44:19;;;;;;;1.27;0.70;;;;;;;;;;5068787;28;20037;-76
2023/07/20 01:46:45;;;;;;;0.50;0.50;;;;;;;;;;5068626;28;20028;-76
2023/07/20 01:49:11;;;;;;;0.88;0.85;;;;;;;;;;5069304;28;20431;-75
2023/07/20 01:51:37;;;;;;;0.98;0.98;;;;;;;;;;5071514;28;20020;-75
2023/07/20 01:54:03;;;;;;;3.00;0.88;;;;;;;;;;5071687;28;20082;-75
2023/07/20 01:56:29;;;;;;;1.05;0.90;;;;;;;;;;5072619;28;20020;-76
2023/07/20 01:58:55;;;;;;;0.93;0.88;;;;;;;;;;5070413;28;20028;-76
2023/07/20 02:01:21;;;;;;;0.63;0.63;;;;;;;;;;5067972;28;20024;-76
2023/07/20 02:03:47;;;;;;;1.70;1.35;;;;;;;;;;5068994;28;20086;-76
2023/07/20 02:06:13;;;;;;;0.90;0.90;;;;;;;;;;5067631;28;20016;-75
2023/07/20 02:08:39;;;;;;;0.95;0.73;;;;;;;;;;5070300;28;20032;-76
2023/07/20 02:11:05;;;;;;;1.05;0.95;;;;;;;;;;5070616;28;20040;-76
2023/07/20 02:13:31;;;;;;;0.75;0.75;;;;;;;;;;5069702;28;20486;-75
2023/07/20 02:15:57;;;;;;;0.77;0.77;;;;;;;;;;5069728;28;20039;-77
2023/07/20 02:18:23;;;;;;;0.95;0.77;;;;;;;;;;5067851;28;20017;-76
2023/07/20 02:20:49;;;;;;;1.13;1.02;;;;;;;;;;5064741;28;20471;-76
2023/07/20 02:23:15;;;;;;;0.60;0.60;;;;;;;;;;5062682;28;20025;-75
2023/07/20 02:25:41;;;;;;;1.55;0.80;;;;;;;;;;5066680;28;20139;-75
2023/07/20 02:28:09;;;;;;;1.00;0.90;;;;;;;;;;5066268;28;20068;-76
2023/07/20 02:30:38;;;;;;;1.20;1.10;;;;;;;;;;5073396;28;20054;-75
2023/07/20 02:33:05;;;;;;;1.00;0.82;;;;;;;;;;5073622;28;20028;-75
2023/07/20 02:35:31;;;;;;;0.80;0.80;;;;;;;;;;5072935;28;20438;-76
2023/07/20 02:37:57;;;;;;;1.75;0.82;;;;;;;;;;5065789;28;20029;-76
2023/07/20 02:40:23;;;;;;;1.13;0.75;;;;;;;;;;5062680;28;20021;-76
2023/07/20 02:42:49;;;;;;;3.17;0.77;;;;;;;;;;5066087;28;20009;-76
2023/07/20 02:45:16;;;;;;;0.82;0.80;;;;;;;;;;5067967;28;20029;-76
2023/07/20 02:47:42;;;;;;;0.85;0.80;;;;;;;;;;5068710;28;20024;-75
2023/07/20 02:50:08;;;;;;;0.70;0.70;;;;;;;;;;5069153;28;20047;-76
2023/07/20 02:52:34;;;;;;;0.80;0.80;;;;;;;;;;5077601;28;20042;-76
2023/07/20 02:55:00;;;;;;;0.70;0.70;;;;;;;;;;5061949;28;20108;-76
2023/07/20 02:57:27;;;;;;;1.08;0.90;;;;;;;;;;5067473;28;20039;-76
2023/07/20 02:59:53;;;;;;;1.70;1.20;;;;;;;;;;5063738;28;22059;-76
2023/07/20 03:02:22;;;;;;;0.75;0.75;;;;;;;;;;5071521;28;20074;-76
2023/07/20 03:04:48;;;;;;;1.23;1.08;;;;;;;;;;5064238;28;20029;-76
2023/07/20 03:07:13;;;;;;;0.73;0.70;;;;;;;;;;5061260;28;20101;-76
2023/07/20 03:09:41;;;;;;;0.70;0.70;;;;;;;;;;5066388;28;20037;-76
2023/07/20 03:12:07;;;;;;;0.77;0.77;;;;;;;;;;5062420;28;20028;-76
2023/07/20 03:14:33;;;;;;;0.73;0.73;;;;;;;;;;5060603;28;20614;-76
2023/07/20 03:16:59;;;;;;;1.02;0.90;;;;;;;;;;5063692;28;20032;-76
2023/07/20 03:19:25;;;;;;;1.00;0.90;;;;;;;;;;5065332;28;20028;-76
2023/07/20 03:21:51;;;;;;;1.05;0.95;;;;;;;;;;5059605;28;20022;-75
2023/07/20 03:24:17;;;;;;;0.88;0.82;;;;;;;;;;5064315;28;20025;-76
2023/07/20 03:26:43;;;;;;;1.10;1.00;;;;;;;;;;5068918;28;20544;-75
2023/07/20 03:29:09;;;;;;;1.23;1.00;;;;;;;;;;5060403;28;20086;-76
2023/07/20 03:31:35;;;;;;;1.10;1.00;;;;;;;;;;5064582;28;20028;-77
2023/07/20 03:34:00;;;;;;;1.35;0.90;;;;;;;;;;5066048;28;20033;-76
2023/07/20 03:36:26;;;;;;;0.82;0.82;;;;;;;;;;5066958;28;20378;-76
2023/07/20 03:38:52;;;;;;;1.42;1.17;;;;;;;;;;5065651;28;20031;-76
2023/07/20 03:41:19;;;;;;;1.33;1.10;;;;;;;;;;5060611;28;20035;-76
2023/07/20 03:43:46;;;;;;;1.30;1.13;;;;;;;;;;5063554;28;20016;-76
2023/07/20 03:46:12;;;;;;;4.82;1.10;;;;;;;;;;5061377;28;20029;-76
2023/07/20 03:48:38;;;;;;;1.23;1.10;;;;;;;;;;5074640;28;20021;-76
2023/07/20 03:51:04;;;;;;;0.75;0.75;;;;;;;;;;5065588;28;20024;-76
2023/07/20 03:53:30;;;;;;;0.90;0.90;;;;;;;;;;5068569;28;20035;-76
2023/07/20 03:55:56;;;;;;;1.48;1.25;;;;;;;;;;5068555;28;20021;-76
2023/07/20 03:58:22;;;;;;;1.27;1.00;;;;;;;;;;5067198;28;20039;-75
2023/07/20 04:00:51;;;;;;;1.05;0.90;;;;;;;;;;5067743;28;20035;-75
2023/07/20 04:03:18;;;;;;;1.08;0.98;;;;;;;;;;5077654;28;20050;-75
2023/07/20 04:05:44;;;;;;;0.90;0.90;;;;;;;;;;5066177;28;20028;-76
2023/07/20 04:08:11;;;;;;;0.80;0.80;;;;;;;;;;5067513;28;20020;-76
2023/07/20 04:10:37;;;;;;;0.88;0.82;;;;;;;;;;5067790;28;20103;-76
2023/07/20 04:13:03;;;;;;;1.35;0.95;;;;;;;;;;5068774;28;20502;-76
2023/07/20 04:15:28;;;;;;;4.68;1.05;;;;;;;;;;5068418;28;20129;-75
2023/07/20 04:17:56;;;;;;;1.67;1.45;;;;;;;;;;5067475;28;20029;-76
2023/07/20 04:20:22;;;;;;;1.45;1.02;;;;;;;;;;5068552;28;20024;-75
2023/07/20 04:22:48;;;;;;;1.45;1.35;;;;;;;;;;5067609;28;20024;-75
2023/07/20 04:25:14;;;;;;;1.98;1.30;;;;;;;;;;5068100;28;20013;-75
2023/07/20 04:27:40;;;;;;;0.80;0.80;;;;;;;;;;5067390;28;20039;-75
2023/07/20 04:30:08;;;;;;;1.48;1.08;;;;;;;;;;5067982;28;20024;-75
2023/07/20 04:32:33;;;;;;;1.92;1.08;;;;;;;;;;5067381;28;20545;-77
2023/07/20 04:35:00;;;;;;;1.48;1.20;;;;;;;;;;5068235;28;20036;-75
2023/07/20 04:37:26;;;;;;;1.95;1.15;;;;;;;;;;5067118;28;20162;-75
2023/07/20 04:39:52;;;;;;;1.30;1.20;;;;;;;;;;5060213;28;20498;-75
2023/07/20 04:42:18;;;;;;;2.10;1.15;;;;;;;;;;5074643;28;20435;-75
2023/07/20 04:44:44;;;;;;;1.58;1.13;;;;;;;;;;5067434;28;20032;-75
2023/07/20 04:47:10;;;;;;;1.52;1.23;;;;;;;;;;5066404;28;20052;-75
2023/07/20 04:49:36;;;;;;;1.40;1.05;;;;;;;;;;5068192;28;20047;-76
2023/07/20 04:52:02;;;;;;;1.20;1.10;;;;;;;;;;5067983;28;20025;-76
2023/07/20 04:54:28;;;;;;;1.42;1.02;;;;;;;;;;5067330;28;20029;-76
2023/07/20 04:56:54;;;;;;;0.85;0.85;;;;;;;;;;5066609;28;20510;-76
2023/07/20 04:59:20;;;;;;;1.75;1.30;;;;;;;;;;5049683;28;20021;-76
2023/07/20 05:01:47;;;;;;;1.95;0.93;;;;;;;;;;5074264;28;20116;-76
2023/07/20 05:04:13;;;;;;;1.27;1.00;;;;;;;;;;5066405;28;20032;-76
2023/07/20 05:06:38;;;;;;;2.85;1.20;;;;;;;;;;5067941;28;20062;-75
2023/07/20 05:09:06;;;;;;;1.33;1.00;;;;;;;;;;5066972;28;20025;-76
2023/07/20 05:11:32;;;;;;;1.52;1.20;;;;;;;;;;5067647;28;20048;-77
2023/07/20 05:13:58;;;;;;;0.90;0.90;;;;;;;;;;5066095;28;20028;-75
2023/07/20 05:16:24;;;;;;;1.38;1.17;;;;;;;;;;5067464;28;20028;-74
2023/07/20 05:18:51;;;;;;;2.03;1.20;;;;;;;;;;5066900;28;20055;-75
2023/07/20 05:21:17;;;;;;;1.05;0.95;;;;;;;;;;5066022;28;20044;-76
2023/07/20 05:23:43;;;;;;;0.80;0.80;;;;;;;;;;5070202;28;20086;-75
2023/07/20 05:26:09;;;;;;;1.65;1.20;;;;;;;;;;5068489;28;20624;-75
2023/07/20 05:28:36;;;;;;;1.35;1.00;;;;;;;;;;5066814;28;20109;-75
2023/07/20 05:31:03;;;;;;;1.25;1.08;;;;;;;;;;5071019;28;20479;-75
2023/07/20 05:33:29;;;;;;;2.33;1.17;;;;;;;;;;5074209;28;20012;-74
2023/07/20 05:35:55;;;;;;;1.73;1.27;;;;;;;;;;5079636;28;20070;-74
2023/07/20 05:38:21;;;;;;;1.13;1.02;;;;;;;;;;5070065;28;20137;-75
2023/07/20 05:40:47;;;;;;;1.35;1.10;;;;;;;;;;5069649;28;20021;-73
2023/07/20 05:43:14;;;;;;;1.13;1.00;;;;;;;;;;5070496;28;20107;-76
2023/07/20 05:45:43;;;;;;;1.52;1.15;;;;;;;;;;5070303;28;20074;-77
2023/07/20 05:48:12;;;;;;;2.00;1.48;;;;;;;;;;5070806;28;20029;-76
2023/07/20 05:50:42;;;;;;;1.60;1.20;;;;;;;;;;5072813;28;20276;-76
2023/07/20 05:53:08;;;;;;;4.63;1.45;;;;;;;;;;5069754;28;20060;-72
2023/07/20 05:55:35;;;;;;;5.68;1.38;;;;;;;;;;5068913;28;20033;-76
2023/07/20 05:58:01;;;;;;;3.63;1.60;;;;;;;;;;5070602;28;20052;-76
2023/07/20 06:00:27;;;;;;;1.27;1.17;;;;;;;;;;5069089;28;20569;-76
2023/07/20 06:02:54;;;;;;;1.35;1.15;;;;;;;;;;5070907;28;20029;-75
2023/07/20 06:05:21;;;;;;;1.48;1.20;;;;;;;;;;5070194;28;20050;-76
2023/07/20 06:07:46;;;;;;;1.92;1.33;;;;;;;;;;5069936;28;20139;-76
2023/07/20 06:10:13;;;;;;;2.33;1.25;;;;;;;;;;5075587;28;20493;-75
2023/07/20 06:12:41;;;;;;;1.55;1.10;;;;;;;;;;5069392;28;20032;-76
2023/07/20 06:15:26;;;;;;;1.17;0.90;;;;;;;;;;5070641;28;20040;-75
2023/07/20 06:17:52;;;;;;;1.63;1.20;;;;;;;;;;5084304;28;20028;-76
2023/07/20 06:20:18;;;;;;;0.90;0.77;;;;;;;;;;5070626;28;20021;-76
2023/07/20 06:22:45;;;;;;;1.27;1.17;;;;;;;;;;5069644;28;20113;-76
2023/07/20 06:25:11;;;;;;;1.20;1.10;;;;;;;;;;5070178;28;20407;-76
2023/07/20 06:27:37;;;;;;;1.13;1.00;;;;;;;;;;5070459;28;20032;-75
2023/07/20 06:30:03;;;;;;;1.35;1.00;;;;;;;;;;5070720;28;20077;-75
2023/07/20 06:32:29;;;;;;;1.02;0.93;;;;;;;;;;5085686;28;20029;-76
2023/07/20 06:34:55;;;;;;;1.27;1.00;;;;;;;;;;5069522;28;20046;-76
2023/07/20 06:37:21;;;;;;;2.65;1.10;;;;;;;;;;5060677;28;20025;-76
2023/07/20 06:39:47;;;;;;;1.10;1.00;;;;;;;;;;5069611;28;20372;-76
2023/07/20 06:42:16;;;;;;;1.33;0.90;;;;;;;;;;5070029;28;20016;-76
2023/07/20 06:44:42;;;;;;;0.75;0.68;;;;;;;;;;5070204;28;20534;-76
2023/07/20 06:47:08;;;;;;;1.23;1.10;;;;;;;;;;5059610;28;20651;-76
2023/07/20 06:49:34;;;;;;;1.27;1.10;;;;;;;;;;5066964;28;20029;-76
2023/07/20 06:52:00;;;;;;;1.10;1.00;;;;;;;;;;5070377;28;20021;-75
2023/07/20 06:54:26;;;;;;;1.13;1.00;;;;;;;;;;5074393;28;20031;-75
2023/07/20 06:56:52;;;;;;;1.33;1.20;;;;;;;;;;5079736;28;20035;-75
2023/07/20 06:59:18;;;;;;;1.35;1.25;;;;;;;;;;5075174;28;20394;-75
2023/07/20 07:01:44;;;;;;;0.80;0.80;;;;;;;;;;5078585;28;20015;-75
2023/07/20 07:04:10;;;;;;;1.23;1.00;;;;;;;;;;5069711;28;20221;-76
2023/07/20 07:06:36;;;;;;;1.25;1.00;;;;;;;;;;5069463;28;20020;-76
2023/07/20 07:09:03;;;;;;;1.05;1.00;;;;;;;;;;5069922;28;20078;-76
2023/07/20 07:11:29;;;;;;;1.55;0.90;;;;;;;;;;5069569;28;20150;-76
2023/07/20 07:13:55;;;;;;;0.75;0.73;;;;;;;;;;5055991;28;20090;-75
2023/07/20 07:16:21;;;;;;;0.95;0.90;;;;;;;;;;5066424;28;20554;-77
2023/07/20 07:18:48;;;;;;;1.90;1.10;;;;;;;;;;5069422;28;20024;-76
2023/07/20 07:21:14;;;;;;;0.80;0.80;;;;;;;;;;5068996;28;20475;-75
2023/07/20 07:23:40;;;;;;;0.73;0.73;;;;;;;;;;5069207;28;20036;-76
2023/07/20 07:26:06;;;;;;;1.05;0.70;;;;;;;;;;5069164;28;20017;-75
2023/07/20 07:28:32;;;;;;;1.27;0.82;;;;;;;;;;5083671;28;20041;-76
2023/07/20 07:31:01;;;;;;;1.00;0.90;;;;;;;;;;5070923;28;20024;-76
2023/07/20 07:33:30;;;;;;;0.70;0.70;;;;;;;;;;5067472;28;20113;-76
2023/07/20 07:35:56;;;;;;;1.08;0.73;;;;;;;;;;5077327;28;20021;-77
2023/07/20 07:38:22;;;;;;;0.90;0.90;;;;;;;;;;5069155;28;20027;-78
2023/07/20 07:40:47;;;;;;;0.60;0.60;;;;;;;;;;5069078;28;20493;-78
2023/07/20 07:43:13;;;;;;;1.33;0.80;;;;;;;;;;5068609;28;20024;-79
2023/07/20 07:45:40;;;;;;;1.40;0.82;;;;;;;;;;5068475;28;20078;-78
2023/07/20 07:48:06;;;;;;;0.88;0.80;;;;;;;;;;5069470;28;20036;-79
2023/07/20 07:50:32;;;;;;;0.88;0.80;;;;;;;;;;5068639;28;20137;-79
2023/07/20 07:52:59;;;;;;;0.70;0.70;;;;;;;;;;5068344;28;20073;-75
2023/07/20 07:55:28;;;;;;;1.33;0.73;;;;;;;;;;5082382;28;20048;-76
2023/07/20 07:57:54;;;;;;;3.33;0.93;;;;;;;;;;5069272;28;20013;-75
2023/07/20 08:00:20;;;;;;;1.13;0.82;;;;;;;;;;5070060;28;20009;-76
2023/07/20 08:02:47;;;;;;;0.80;0.77;;;;;;;;;;5068548;28;20464;-75
2023/07/20 08:05:14;;;;;;;0.80;0.80;;;;;;;;;;5068211;28;20027;-75
2023/07/20 08:07:40;;;;;;;0.98;0.70;;;;;;;;;;5068194;28;20025;-75
2023/07/20 08:10:06;;;;;;;1.13;0.68;;;;;;;;;;5063176;28;20784;-76
2023/07/20 08:12:32;;;;;;;0.60;0.60;;;;;;;;;;5070142;28;20791;-73
2023/07/20 08:14:58;;;;;;;0.60;0.60;;;;;;;;;;5070124;28;20391;-74
2023/07/20 08:17:24;;;;;;;1.17;0.43;;;;;;;;;;5067945;28;20453;-74
2023/07/20 08:19:50;;;;;;;2.97;0.70;;;;;;;;;;5068418;28;20040;-73
2023/07/20 08:22:16;;;;;;;2.47;0.60;;;;;;;;;;5066207;28;20029;-75
2023/07/20 08:24:43;;;;;;;2.15;1.00;;;;;;;;;;5049983;28;20025;-75
2023/07/20 08:27:09;;;;;;;1.55;0.50;;;;;;;;;;5079534;28;20502;-73
2023/07/20 08:29:38;;;;;;;3.70;0.80;;;;;;;;;;5067613;28;20451;-74
2023/07/20 08:32:05;;;;;;;5.07;1.02;;;;;;;;;;5073891;28;20118;-73
2023/07/20 08:34:31;;;;;;;0.50;0.50;;;;;;;;;;5062617;28;20023;-74
2023/07/20 08:36:58;;;;;;;0.52;0.45;;;;;;;;;;5067951;28;20115;-74
2023/07/20 08:39:24;;;;;;;0.47;0.47;;;;;;;;;;5063835;28;20055;-74
2023/07/20 08:41:51;;;;;;;0.40;0.40;;;;;;;;;;5070701;28;20254;-75
2023/07/20 08:44:17;;;;;;;0.40;0.40;;;;;;;;;;5067605;28;20013;-75
2023/07/20 08:46:44;;;;;;;0.40;0.40;;;;;;;;;;5069487;28;20089;-75
2023/07/20 08:49:11;;;;;;;0.40;0.40;;;;;;;;;;5066787;28;20112;-75
2023/07/20 08:51:47;;;;;;;3.40;0.47;;;;;;;;;;5067806;28;20029;-74
2023/07/20 08:54:14;;;;;;;0.52;0.52;;;;;;;;;;5067922;28;20056;-73
2023/07/20 08:56:41;;;;;;;0.40;0.40;;;;;;;;;;5070641;28;20032;-73
2023/07/20 08:59:08;;;;;;;0.30;0.30;;;;;;;;;;5067266;28;20161;-73
2023/07/20 09:01:35;;;;;;;0.30;0.30;;;;;;;;;;5067115;28;20016;-79
2023/07/20 09:04:02;;;;;;;0.63;0.45;;;;;;;;;;5067992;28;20029;-73
2023/07/20 09:06:28;;;;;;;0.32;0.32;;;;;;;;;;5067221;28;20053;-74
2023/07/20 09:08:53;;;;;;;0.50;0.50;;;;;;;;;;5067636;28;20012;-74
2023/07/20 09:11:19;;;;;;;0.15;0.15;;;;;;;;;;5067415;28;20497;-73
2023/07/20 09:13:45;;;;;;;0.50;0.50;;;;;;;;;;5068467;28;20501;-75
2023/07/20 09:16:14;;;;;;;0.40;0.40;;;;;;;;;;5066233;28;20042;-75
2023/07/20 09:18:40;;;;;;;1.73;0.50;;;;;;;;;;5069107;28;20082;-74
2023/07/20 09:21:06;;;;;;;0.55;0.40;;;;;;;;;;5065387;28;20036;-79
2023/07/20 09:23:36;;;;;;;0.40;0.40;;;;;;;;;;5066373;28;20059;-75
2023/07/20 09:26:12;;;;;;;0.40;0.40;;;;;;;;;;5068923;28;20028;-78
2023/07/20 09:28:50;;;;;;;0.45;0.45;;;;;;;;;;5066046;28;20044;-75
2023/07/20 09:31:23;;;;;;;0.50;0.50;;;;;;;;;;5072014;28;20028;-75
2023/07/20 09:33:49;;;;;;;2.65;0.60;;;;;;;;;;5070018;28;20162;-78
2023/07/20 09:36:15;;;;;;;0.55;0.40;;;;;;;;;;5073272;28;20486;-75
2023/07/20 09:38:44;;;;;;;0.30;0.30;;;;;;;;;;5071026;28;20120;-75
2023/07/20 09:41:15;;;;;;;0.40;0.40;;;;;;;;;;5064052;28;20028;-76
2023/07/20 09:43:41;;;;;;;0.52;0.50;;;;;;;;;;5065323;28;20074;-75
2023/07/20 09:46:07;;;;;;;0.90;0.32;;;;;;;;;;5059930;28;20024;-74
2023/07/20 09:48:33;;;;;;;0.30;0.30;;;;;;;;;;5062823;28;20041;-76
2023/07/20 09:50:59;;;;;;;0.40;0.40;;;;;;;;;;5065229;28;20033;-76
2023/07/20 09:53:26;;;;;;;0.40;0.40;;;;;;;;;;5065609;28;20032;-76
2023/07/20 09:55:53;;;;;;;0.40;0.40;;;;;;;;;;5062940;28;20148;-76
2023/07/20 09:58:20;;;;;;;0.60;0.60;;;;;;;;;;5063990;28;20028;-77
2023/07/20 10:00:51;;;;;;;0.30;0.30;;;;;;;;;;5062089;28;20032;-76
2023/07/20 10:03:19;;;;;;;0.40;0.40;;;;;;;;;;5064125;28;20032;-75
2023/07/20 10:05:49;;;;;;;0.35;0.32;;;;;;;;;;5051031;28;20616;-75
2023/07/20 10:08:16;;;;;;;0.35;0.35;;;;;;;;;;5058832;28;20421;-75
2023/07/20 10:10:43;;;;;;;1.90;0.90;;;;;;;;;;5065058;28;20403;-76
2023/07/20 10:13:17;;;;;;;1.17;0.35;;;;;;;;;;5070222;28;20055;-76
2023/07/20 10:15:55;;;;;;;0.43;0.43;;;;;;;;;;5068879;28;20044;-72
2023/07/20 10:18:50;;;;;;;0.40;0.40;;;;;;;;;;5073370;28;20032;-75
2023/07/20 10:21:20;;;;;;;0.50;0.40;;;;;;;;;;5060944;28;20114;-74
2023/07/20 10:23:46;;;;;;;0.30;0.30;;;;;;;;;;5070367;28;20031;-76
2023/07/20 10:26:12;;;;;;;0.52;0.38;;;;;;;;;;5070663;28;20480;-76
2023/07/20 10:28:39;;;;;;;0.73;0.38;;;;;;;;;;5074205;28;20067;-75
2023/07/20 10:31:07;;;;;;;4.47;0.60;;;;;;;;;;5072452;28;20039;-76
2023/07/20 10:33:34;;;;;;;0.40;0.40;;;;;;;;;;5051943;28;20394;-76
2023/07/20 10:36:05;;;;;;;0.35;0.35;;;;;;;;;;5061419;28;20454;-75
2023/07/20 10:38:31;;;;;;;;;;;;;;;;;;5051922;28;20020;-76
2023/07/20 10:40:57;;;;;;;0.50;0.40;;;;;;;;;;5046211;28;20006;-75
2023/07/20 10:43:23;;;;;;;0.30;0.28;;;;;;;;;;5072959;28;20020;-75
2023/07/20 10:45:50;;;;;;;0.75;0.40;;;;;;;;;;5068032;28;20036;-75
2023/07/20 10:48:17;;;;;;;0.68;0.68;;;;;;;;;;5066885;28;20031;-75
2023/07/20 10:50:44;;;;;;;0.32;0.32;;;;;;;;;;5073520;28;20480;-75
2023/07/20 10:53:14;;;;;;;0.38;0.38;;;;;;;;;;5069371;28;20040;-75
2023/07/20 10:55:40;;;;;;;1.85;0.50;;;;;;;;;;5064060;28;20020;-76
2023/07/20 10:58:08;;;;;;;2.10;0.52;;;;;;;;;;5065683;28;20484;-75
2023/07/20 11:00:34;;;;;;;0.82;0.70;;;;;;;;;;5065175;28;20063;-75
2023/07/20 11:03:00;;;;;;;0.50;0.50;;;;;;;;;;5064445;28;20108;-75
2023/07/20 11:05:37;;;;;;;1.58;0.82;;;;;;;;;;5063295;28;20103;-76
2023/07/20 11:08:07;;;;;;;3.13;0.40;;;;;;;;;;5063935;28;20501;-76
2023/07/20 11:10:33;;;;;;;0.52;0.52;;;;;;;;;;5066520;28;20036;-76
2023/07/20 11:13:18;;;;;;;6.60;0.90;;;;;;;;;;5065574;28;20060;-76
2023/07/20 11:16:13;;;;;;;2.72;0.95;;;;;;;;;;5066811;28;20184;-74
2023/07/20 11:18:39;;;;;;;8.23;1.38;;;;;;;;;;5053028;28;20036;-75
2023/07/20 11:21:07;;;;;;;6.22;0.93;;;;;;;;;;5064994;28;20121;-74
2023/07/20 11:23:34;;;;;;;6.35;0.90;;;;;;;;;;5065844;28;20016;-79
2023/07/20 11:26:00;;;;;;;7.30;1.33;;;;;;;;;;5065225;28;20028;-75
2023/07/20 11:28:26;;;;;;;1.13;0.70;;;;;;;;;;5065610;28;20058;-75
2023/07/20 11:30:55;;;;;;;1.52;1.08;;;;;;;;;;5066052;28;20028;-74
2023/07/20 11:33:21;;;;;;;7.70;1.95;;;;;;;;;;5064190;28;20027;-75
2023/07/20 11:35:53;;;;;;;0.45;0.45;;;;;;;;;;5066393;28;20024;-75
2023/07/20 11:38:19;;;;;;;6.60;1.20;;;;;;;;;;5065212;28;20069;-74
2023/07/20 11:40:45;;;;;;;9.23;1.20;;;;;;;;;;5067615;28;20029;-74
2023/07/20 11:43:12;;;;;;;2.80;1.02;;;;;;;;;;5058902;28;20064;-74
2023/07/20 11:45:38;;;;;;;2.30;0.95;;;;;;;;;;5063525;28;20435;-80
2023/07/20 11:48:05;;;;;;;2.92;0.98;;;;;;;;;;5065721;28;20021;-77
2023/07/20 11:50:31;;;;;;;3.55;0.70;;;;;;;;;;5061778;28;20054;-75
2023/07/20 11:52:57;;;;;;;0.95;0.65;;;;;;;;;;5058606;28;20433;-75
2023/07/20 11:55:28;;;;;;;1.85;0.80;;;;;;;;;;5066136;28;20044;-73
2023/07/20 11:57:54;;;;;;;;;;;;;;;;;;5069315;28;20035;-74
2023/07/20 12:00:20;;;;;;;1.52;0.80;;;;;;;;;;5069170;28;20343;-74
2023/07/20 12:02:46;;;;;;;2.35;1.02;;;;;;;;;;5066620;28;20494;-74
2023/07/20 12:05:15;;;;;;;0.60;0.60;;;;;;;;;;5059183;28;20017;-74
2023/07/20 12:07:42;;;;;;;1.88;0.98;;;;;;;;;;5064467;28;20082;-74
2023/07/20 12:10:09;;;;;;;2.33;0.75;;;;;;;;;;5062628;28;20040;-73
2023/07/20 12:12:38;;;;;;;3.78;0.60;;;;;;;;;;5064671;28;20031;-74
2023/07/20 12:15:29;;;;;;;1.70;0.73;;;;;;;;;;5067245;28;20016;-73
2023/07/20 12:17:56;;;;;;;0.70;0.53;;;;;;;;;;5066292;28;20094;-74
2023/07/20 12:20:32;;;;;;;0.43;0.43;;;;;;;;;;5068724;28;20107;-74
2023/07/20 12:23:02;;;;;;;3.00;0.65;;;;;;;;;;5069252;28;20127;-75
2023/07/20 12:25:34;;;;;;;1.10;0.60;;;;;;;;;;5064599;28;20025;-75
2023/07/20 12:28:13;;;;;;;0.85;0.65;;;;;;;;;;5048674;28;20387;-75
2023/07/20 12:30:40;;;;;;;1.73;0.70;;;;;;;;;;5067350;28;20576;-75
2023/07/20 12:33:06;;;;;;;0.90;0.38;;;;;;;;;;5065374;28;20025;-74
2023/07/20 12:35:32;;;;;;;1.40;0.55;;;;;;;;;;5066905;28;20035;-74
2023/07/20 12:37:58;;;;;;;1.30;0.73;;;;;;;;;;5066482;28;20033;-75
2023/07/20 12:40:24;;;;;;;3.03;0.50;;;;;;;;;;5069595;28;20020;-76
2023/07/20 12:42:50;;;;;;;0.77;0.50;;;;;;;;;;5067323;28;20108;-75
2023/07/20 12:45:16;;;;;;;2.13;0.50;;;;;;;;;;5067276;28;20031;-77
2023/07/20 12:47:43;;;;;;;0.70;0.35;;;;;;;;;;5068217;28;20047;-74
2023/07/20 12:50:09;;;;;;;0.52;0.52;;;;;;;;;;5063047;28;20035;-74
2023/07/20 12:52:39;;;;;;;0.43;0.43;;;;;;;;;;5063813;28;20529;-73
2023/07/20 12:55:05;;;;;;;0.47;0.40;;;;;;;;;;5069570;28;20028;-72
2023/07/20 12:57:31;;;;;;;0.20;0.20;;;;;;;;;;5067408;28;20024;-73
2023/07/20 12:59:58;;;;;;;0.43;0.30;;;;;;;;;;5064832;28;20031;-74
2023/07/20 13:02:24;;;;;;;0.90;0.28;;;;;;;;;;5066346;28;20029;-74
2023/07/20 13:04:50;;;;;;;0.47;0.40;;;;;;;;;;5067962;28;20025;-74
2023/07/20 13:07:16;;;;;;;1.15;0.50;;;;;;;;;;5067050;28;20032;-74
2023/07/20 13:09:42;;;;;;;0.47;0.40;;;;;;;;;;5061439;28;20028;-73
2023/07/20 13:12:08;;;;;;;0.82;0.38;;;;;;;;;;5058260;28;20013;-73
2023/07/20 13:14:34;;;;;;;0.35;0.35;;;;;;;;;;5058368;28;20044;-75
2023/07/20 13:17:00;;;;;;;1.13;0.30;;;;;;;;;;5065572;28;20129;-75
2023/07/20 13:19:27;;;;;;;0.80;0.40;;;;;;;;;;5065320;28;20040;-74
2023/07/20 13:21:53;;;;;;;0.30;0.30;;;;;;;;;;5065891;28;20016;-75
2023/07/20 13:24:19;;;;;;;0.38;0.30;;;;;;;;;;5066280;28;20020;-76
2023/07/20 13:26:44;;;;;;;0.20;0.20;;;;;;;;;;5068529;28;20021;-76
2023/07/20 13:29:10;;;;;;;0.65;0.47;;;;;;;;;;5082745;28;20041;-72
2023/07/20 13:31:37;;;;;;;0.35;0.35;;;;;;;;;;5060258;28;20029;-71
2023/07/20 13:34:03;;;;;;;2.40;0.60;;;;;;;;;;5073250;28;20481;-71
2023/07/20 13:36:29;;;;;;;0.60;0.50;;;;;;;;;;5068893;28;20028;-72
2023/07/20 13:38:55;;;;;;;0.63;0.45;;;;;;;;;;5066163;28;20047;-75
2023/07/20 13:41:21;;;;;;;0.40;0.40;;;;;;;;;;5066857;28;20593;-74
2023/07/20 13:43:47;;;;;;;1.20;0.60;;;;;;;;;;5068043;28;20474;-76
2023/07/20 13:46:13;;;;;;;0.60;0.60;;;;;;;;;;5066152;28;20513;-75
2023/07/20 13:48:40;;;;;;;0.60;0.40;;;;;;;;;;5068776;28;20028;-75
2023/07/20 13:51:06;;;;;;;4.30;0.60;;;;;;;;;;5069296;28;20738;-75
2023/07/20 13:53:32;;;;;;;0.60;0.40;;;;;;;;;;5071033;28;20023;-75
2023/07/20 13:55:58;;;;;;;0.45;0.40;;;;;;;;;;5066680;28;20021;-75
2023/07/20 13:58:24;;;;;;;1.15;0.50;;;;;;;;;;5074288;28;20043;-74
2023/07/20 14:00:50;;;;;;;0.40;0.40;;;;;;;;;;5070489;28;20024;-73
2023/07/20 14:03:16;;;;;;;0.52;0.52;;;;;;;;;;5085575;28;20020;-74
2023/07/20 14:05:43;;;;;;;0.28;0.28;;;;;;;;;;5072048;28;20095;-74
2023/07/20 14:08:09;;;;;;;0.35;0.35;;;;;;;;;;5069404;28;20115;-75
2023/07/20 14:10:35;;;;;;;0.70;0.40;;;;;;;;;;5068261;28;20035;-74
2023/07/20 14:13:01;;;;;;;0.50;0.50;;;;;;;;;;5068634;28;20098;-74
2023/07/20 14:15:27;;;;;;;0.38;0.38;;;;;;;;;;5069214;28;20035;-73
2023/07/20 14:17:53;;;;;;;0.77;0.30;;;;;;;;;;5085530;28;20025;-74
2023/07/20 14:20:19;;;;;;;0.70;0.60;;;;;;;;;;5069944;28;20028;-75
2023/07/20 14:22:45;;;;;;;1.23;0.40;;;;;;;;;;5063691;28;20008;-73
2023/07/20 14:25:11;;;;;;;1.02;0.70;;;;;;;;;;5070048;28;20024;-74
2023/07/20 14:27:37;;;;;;;0.40;0.40;;;;;;;;;;5067946;28;20031;-75
2023/07/20 14:30:03;;;;;;;0.55;0.40;;;;;;;;;;5064340;28;20032;-74
2023/07/20 14:32:29;;;;;;;0.30;0.30;;;;;;;;;;5070892;28;20037;-74
2023/07/20 14:34:55;;;;;;;0.40;0.40;;;;;;;;;;5071708;28;20044;-74
2023/07/20 14:37:21;;;;;;;0.43;0.40;;;;;;;;;;5066519;28;20044;-73
2023/07/20 14:39:48;;;;;;;0.20;0.20;;;;;;;;;;5063804;28;20066;-74
2023/07/20 14:42:14;;;;;;;0.40;0.40;;;;;;;;;;5068430;28;20035;-73